createdAt,value
2018-12-09T00:01:54.969Z,9.07
2018-12-09T00:04:23.401Z,10.40
2018-12-09T00:06:51.839Z,7.47
2018-12-09T00:09:20.308Z,6.53
2018-12-09T00:11:50.296Z,7.90
2018-12-09T00:14:18.561Z,6.30
2018-12-09T00:16:47.106Z,9.67
2018-12-09T00:19:15.600Z,9.73
2018-12-09T00:21:44.174Z,8.63
2018-12-09T00:24:12.682Z,9.93
2018-12-09T00:26:41.117Z,6.97
2018-12-09T00:29:09.445Z,6.80
2018-12-09T00:31:38.893Z,8.50
2018-12-09T00:34:07.267Z,8.47
2018-12-09T00:36:35.549Z,8.70
2018-12-09T00:39:05.963Z,2.77
2018-12-09T00:41:34.176Z,3.33
2018-12-09T00:44:02.655Z,3.73
2018-12-09T00:46:31.081Z,2.20
2018-12-09T00:49:01.505Z,4.80
2018-12-09T00:51:30.113Z,4.10
2018-12-09T00:57:31.209Z,7.47
2018-12-09T00:59:59.544Z,7.57
2018-12-09T01:02:27.898Z,8.43
2018-12-09T01:04:56.412Z,6.83
2018-12-09T01:07:24.701Z,9.93
2018-12-09T01:09:53.204Z,3.40
2018-12-09T01:12:21.532Z,6.27
2018-12-09T01:14:50.133Z,5.53
2018-12-09T01:17:18.473Z,7.53
2018-12-09T01:19:46.909Z,7.77
2018-12-09T01:22:14.185Z,8.67
2018-12-09T01:24:42.161Z,9.20
2018-12-09T01:27:09.392Z,11.00
2018-12-09T01:29:36.716Z,6.97
2018-12-09T01:32:04.039Z,13.67
2018-12-09T01:34:31.269Z,9.60
2018-12-09T01:36:58.615Z,12.43
2018-12-09T01:39:28.520Z,6.93
2018-12-09T01:41:56.877Z,11.50
2018-12-09T01:44:24.225Z,12.00
2018-12-09T01:46:51.832Z,9.40
2018-12-09T01:49:19.072Z,13.43
2018-12-09T01:51:46.285Z,9.70
2018-12-09T01:54:14.814Z,9.50
2018-12-09T01:56:43.708Z,9.03
2018-12-09T01:59:12.165Z,7.43
2018-12-09T02:01:41.092Z,9.30
2018-12-09T02:04:09.441Z,11.27
2018-12-09T02:06:38.211Z,13.03
2018-12-09T02:09:08.663Z,13.83
2018-12-09T02:11:37.117Z,14.93
2018-12-09T02:14:05.641Z,9.07
2018-12-09T02:16:34.533Z,11.60
2018-12-09T02:19:16.202Z,8.90
2018-12-09T02:21:45.171Z,12.63
2018-12-09T02:24:13.625Z,11.30
2018-12-09T02:26:42.193Z,17.87
2018-12-09T02:29:10.806Z,15.97
2018-12-09T02:31:39.318Z,12.80
2018-12-09T02:34:07.886Z,14.47
2018-12-09T02:36:37.061Z,19.70
2018-12-09T02:39:07.409Z,14.53
2018-12-09T02:41:37.348Z,14.33
2018-12-09T02:44:05.896Z,13.10
2018-12-09T02:46:35.132Z,8.20
2018-12-09T02:49:03.742Z,16.57
2018-12-09T02:51:34.988Z,11.07
2018-12-09T02:54:03.710Z,8.73
2018-12-09T02:56:32.365Z,14.20
2018-12-09T02:59:00.936Z,10.40
2018-12-09T03:01:29.308Z,11.93
2018-12-09T03:04:02.786Z,9.33
2018-12-09T03:06:31.631Z,14.17
2018-12-09T03:09:00.066Z,15.60
2018-12-09T03:11:28.545Z,9.90
2018-12-09T03:13:57.002Z,10.50
2018-12-09T03:16:25.580Z,12.37
2018-12-09T03:18:54.947Z,12.27
2018-12-09T03:21:23.422Z,10.20
2018-12-09T03:23:51.805Z,8.87
2018-12-09T03:26:20.794Z,12.00
2018-12-09T03:28:49.124Z,8.97
2018-12-09T03:31:17.466Z,9.07
2018-12-09T03:33:45.778Z,15.00
2018-12-09T03:36:14.113Z,10.60
2018-12-09T03:38:46.755Z,10.23
2018-12-09T03:41:15.674Z,10.83
2018-12-09T03:43:43.979Z,10.37
2018-12-09T03:46:12.461Z,6.77
2018-12-09T03:48:40.905Z,10.07
2018-12-09T03:51:09.344Z,10.50
2018-12-09T03:53:37.786Z,9.90
2018-12-09T03:56:06.151Z,11.40
2018-12-09T03:58:34.504Z,14.40
2018-12-09T04:01:02.929Z,10.63
2018-12-09T04:03:31.561Z,11.37
2018-12-09T04:05:59.918Z,11.47
2018-12-09T04:08:28.355Z,10.93
2018-12-09T04:10:56.927Z,11.53
2018-12-09T04:13:25.405Z,15.87
2018-12-09T04:15:54.157Z,9.13
2018-12-09T04:18:22.834Z,9.27
2018-12-09T04:20:51.199Z,8.77
2018-12-09T04:23:20.104Z,13.50
2018-12-09T04:25:48.677Z,10.03
2018-12-09T04:28:17.158Z,10.90
2018-12-09T04:30:45.816Z,8.20
2018-12-09T04:33:14.398Z,8.37
2018-12-09T04:35:42.844Z,9.00
2018-12-09T04:38:11.188Z,9.50
2018-12-09T04:40:39.520Z,12.87
2018-12-09T04:43:07.961Z,12.00
2018-12-09T04:45:36.456Z,9.77
2018-12-09T04:48:05.022Z,7.33
2018-12-09T04:50:33.764Z,14.03
2018-12-09T04:53:02.154Z,8.80
2018-12-09T04:55:30.519Z,8.47
2018-12-09T04:57:58.958Z,10.73
2018-12-09T05:00:39.081Z,7.50
2018-12-09T05:03:07.424Z,10.07
2018-12-09T05:05:41.616Z,7.10
2018-12-09T05:08:08.861Z,5.13
2018-12-09T05:10:36.153Z,7.17
2018-12-09T05:13:03.509Z,3.80
2018-12-09T05:15:30.768Z,9.83
2018-12-09T05:17:59.135Z,6.27
2018-12-09T05:20:27.689Z,11.53
2018-12-09T05:23:01.848Z,6.17
2018-12-09T05:25:29.337Z,4.93
2018-12-09T05:27:56.582Z,6.30
2018-12-09T05:30:23.816Z,6.90
2018-12-09T05:32:51.140Z,7.93
2018-12-09T05:35:19.846Z,8.43
2018-12-09T05:37:48.168Z,8.67
2018-12-09T05:40:16.733Z,10.23
2018-12-09T05:42:45.265Z,7.27
2018-12-09T05:45:13.706Z,6.50
2018-12-09T05:47:42.456Z,10.03
2018-12-09T05:50:12.152Z,5.53
2018-12-09T05:52:40.496Z,6.80
2018-12-09T05:55:08.919Z,10.57
2018-12-09T05:57:37.476Z,7.83
2018-12-09T06:00:08.468Z,7.13
2018-12-09T06:02:48.304Z,9.17
2018-12-09T06:05:16.597Z,4.67
2018-12-09T06:07:45.053Z,5.97
2018-12-09T06:10:13.550Z,7.07
2018-12-09T06:12:42.041Z,7.03
2018-12-09T06:15:10.629Z,4.23
2018-12-09T06:17:38.992Z,7.40
2018-12-09T06:20:07.957Z,4.77
2018-12-09T06:22:36.308Z,5.40
2018-12-09T06:25:04.749Z,5.60
2018-12-09T06:27:33.376Z,5.70
2018-12-09T06:30:01.729Z,8.00
2018-12-09T06:32:30.561Z,7.70
2018-12-09T06:34:58.992Z,11.60
2018-12-09T06:37:27.430Z,10.70
2018-12-09T06:39:56.668Z,11.30
2018-12-09T06:42:25.096Z,11.13
2018-12-09T06:44:53.410Z,8.80
2018-12-09T06:47:22.279Z,13.93
2018-12-09T06:49:50.565Z,10.67
2018-12-09T06:52:18.864Z,6.77
2018-12-09T06:54:48.582Z,14.93
2018-12-09T06:57:17.155Z,8.47
2018-12-09T06:59:46.351Z,16.03
2018-12-09T07:02:14.695Z,10.83
2018-12-09T07:04:43.115Z,9.23
2018-12-09T07:07:11.659Z,9.53
2018-12-09T07:09:40.281Z,7.93
2018-12-09T07:12:08.880Z,7.50
2018-12-09T07:14:37.367Z,7.13
2018-12-09T07:17:08.314Z,12.13
2018-12-09T07:19:35.620Z,13.20
2018-12-09T07:22:03.987Z,10.73
2018-12-09T07:24:33.987Z,11.80
2018-12-09T07:27:02.907Z,14.07
2018-12-09T07:29:31.464Z,22.70
2018-12-09T07:32:05.741Z,10.53
2018-12-09T07:34:33.073Z,9.07
2018-12-09T07:37:02.703Z,12.73
2018-12-09T07:39:30.164Z,9.73
2018-12-09T07:41:57.675Z,11.10
2018-12-09T07:44:25.322Z,12.57
2018-12-09T07:46:52.901Z,15.47
2018-12-09T07:49:20.109Z,14.57
2018-12-09T07:51:48.667Z,22.97
2018-12-09T07:54:17.443Z,15.53
2018-12-09T07:56:45.756Z,17.63
2018-12-09T07:59:13.991Z,18.63
2018-12-09T08:01:42.537Z,21.77
2018-12-09T08:04:10.853Z,14.77
2018-12-09T08:06:42.221Z,14.70
2018-12-09T08:09:10.601Z,18.30
2018-12-09T08:11:39.072Z,16.93
2018-12-09T08:14:08.082Z,16.60
2018-12-09T08:16:37.259Z,11.17
2018-12-09T08:19:05.524Z,20.87
2018-12-09T08:21:34.512Z,13.93
2018-12-09T08:24:03.112Z,19.03
2018-12-09T08:26:31.488Z,15.53
2018-12-09T08:28:59.923Z,17.23
2018-12-09T08:31:28.256Z,14.13
2018-12-09T08:33:57.921Z,9.73
2018-12-09T08:36:26.256Z,10.77
2018-12-09T08:38:54.704Z,9.03
2018-12-09T08:41:23.073Z,14.60
2018-12-09T08:43:51.404Z,9.23
2018-12-09T08:46:19.737Z,16.40
2018-12-09T08:48:48.132Z,10.83
2018-12-09T08:51:16.464Z,18.00
2018-12-09T08:53:44.902Z,17.03
2018-12-09T08:56:13.199Z,14.93
2018-12-09T08:58:41.620Z,12.67
2018-12-09T09:01:10.130Z,16.03
2018-12-09T09:03:38.660Z,18.10
2018-12-09T09:06:07.207Z,7.77
2018-12-09T09:08:35.627Z,13.67
2018-12-09T09:11:04.397Z,16.03
2018-12-09T09:13:32.668Z,16.93
2018-12-09T09:16:01.048Z,15.40
2018-12-09T09:18:29.401Z,10.83
2018-12-09T09:20:57.864Z,7.60
2018-12-09T09:23:26.225Z,4.57
2018-12-09T09:25:54.542Z,5.23
2018-12-09T09:28:22.853Z,2.70
2018-12-09T09:30:51.341Z,2.45
2018-12-09T09:33:19.656Z,2.72
2018-12-09T09:35:47.991Z,3.42
2018-12-09T09:38:16.324Z,2.55
2018-12-09T09:40:44.776Z,3.37
2018-12-09T09:43:13.260Z,2.00
2018-12-09T09:45:41.614Z,1.27
2018-12-09T09:48:09.940Z,2.45
2018-12-09T09:50:39.336Z,1.90
2018-12-09T09:53:07.800Z,3.37
2018-12-09T09:55:36.199Z,2.25
2018-12-09T09:58:04.556Z,3.33
2018-12-09T10:00:32.888Z,1.22
2018-12-09T10:03:01.129Z,3.95
2018-12-09T10:05:29.685Z,2.10
2018-12-09T10:07:58.693Z,0.80
2018-12-09T10:10:27.131Z,1.50
2018-12-09T10:12:56.310Z,1.37
2018-12-09T10:15:26.288Z,1.30
2018-12-09T10:17:54.623Z,2.05
2018-12-09T10:20:22.859Z,1.17
2018-12-09T10:22:51.312Z,2.13
2018-12-09T10:25:19.633Z,2.47
2018-12-09T10:27:50.781Z,0.83
2018-12-09T10:30:19.212Z,3.60
2018-12-09T10:32:47.562Z,3.23
2018-12-09T10:35:15.945Z,1.20
2018-12-09T10:37:44.269Z,1.97
2018-12-09T10:40:12.529Z,3.63
2018-12-09T10:42:40.916Z,2.70
2018-12-09T10:45:09.507Z,3.50
2018-12-09T10:47:37.823Z,2.20
2018-12-09T10:50:07.157Z,1.63
2018-12-09T10:52:35.655Z,1.20
2018-12-09T10:55:04.120Z,1.53
2018-12-09T10:57:32.479Z,1.57
2018-12-09T11:00:00.792Z,1.10
2018-12-09T11:02:29.232Z,1.13
2018-12-09T11:04:57.988Z,1.67
2018-12-09T11:07:26.312Z,2.83
2018-12-09T11:09:54.659Z,2.13
2018-12-09T11:12:23.007Z,3.10
2018-12-09T11:14:51.429Z,1.60
2018-12-09T11:17:19.995Z,1.65
2018-12-09T11:19:48.691Z,1.60
2018-12-09T11:22:16.927Z,1.82
2018-12-09T11:24:46.996Z,2.07
2018-12-09T11:27:15.436Z,3.90
2018-12-09T11:29:43.743Z,6.53
2018-12-09T11:32:12.069Z,5.60
2018-12-09T11:34:40.491Z,4.20
2018-12-09T11:37:09.052Z,4.77
2018-12-09T11:39:37.459Z,4.22
2018-12-09T11:42:05.911Z,5.80
2018-12-09T11:44:35.339Z,6.27
2018-12-09T11:47:03.797Z,2.53
2018-12-09T11:49:32.323Z,2.07
2018-12-09T11:52:00.588Z,2.10
2018-12-09T11:54:29.048Z,3.13
2018-12-09T11:56:57.727Z,3.20
2018-12-09T11:59:26.711Z,1.67
2018-12-09T12:01:55.344Z,2.90
2018-12-09T12:04:23.527Z,3.33
2018-12-09T12:06:51.715Z,2.77
2018-12-09T12:09:20.019Z,1.80
2018-12-09T12:11:48.261Z,2.87
2018-12-09T12:14:16.622Z,1.50
2018-12-09T12:16:48.350Z,4.67
2018-12-09T12:21:51.024Z,1.77
2018-12-09T12:24:18.287Z,2.27
2018-12-09T12:26:45.486Z,1.80
2018-12-09T12:29:12.672Z,2.10
2018-12-09T12:31:40.284Z,2.10
2018-12-09T12:34:08.580Z,2.57
2018-12-09T12:36:36.846Z,3.27
2018-12-09T12:39:06.285Z,3.43
2018-12-09T12:41:34.756Z,4.10
2018-12-09T12:44:03.506Z,3.80
2018-12-09T12:46:32.142Z,3.83
2018-12-09T12:49:01.441Z,9.37
2018-12-09T12:51:29.852Z,5.23
2018-12-09T12:53:58.412Z,4.83
2018-12-09T12:56:26.765Z,6.50
2018-12-09T12:58:55.076Z,5.83
2018-12-09T13:01:23.807Z,5.20
2018-12-09T13:03:52.164Z,5.43
2018-12-09T13:06:21.092Z,6.83
2018-12-09T13:08:49.455Z,6.80
2018-12-09T13:11:17.899Z,5.03
2018-12-09T13:13:46.372Z,7.13
2018-12-09T13:16:14.633Z,5.60
2018-12-09T13:18:42.972Z,7.03
2018-12-09T13:21:11.582Z,5.60
2018-12-09T13:23:39.822Z,6.00
2018-12-09T13:26:09.336Z,5.97
2018-12-09T13:28:37.921Z,6.30
2018-12-09T13:31:06.324Z,6.93
2018-12-09T13:33:34.652Z,6.53
2018-12-09T13:36:03.495Z,6.20
2018-12-09T13:38:36.452Z,10.20
2018-12-09T13:41:04.797Z,8.83
2018-12-09T13:43:33.313Z,4.67
2018-12-09T13:46:01.701Z,5.43
2018-12-09T13:48:30.180Z,7.07
2018-12-09T13:50:58.488Z,4.13
2018-12-09T13:53:26.930Z,7.50
2018-12-09T13:55:55.461Z,8.83
2018-12-09T13:58:24.041Z,5.87
2018-12-09T14:00:52.514Z,5.70
2018-12-09T14:03:21.055Z,5.30
2018-12-09T14:05:49.368Z,4.87
2018-12-09T14:08:18.476Z,10.17
2018-12-09T14:10:46.981Z,6.50
2018-12-09T14:13:15.501Z,4.20
2018-12-09T14:15:49.530Z,13.63
2018-12-09T14:18:16.759Z,6.87
2018-12-09T14:20:46.714Z,5.50
2018-12-09T14:23:13.924Z,6.27
2018-12-09T14:25:41.164Z,5.90
2018-12-09T14:28:09.532Z,5.53
2018-12-09T14:30:37.760Z,6.70
2018-12-09T14:33:06.288Z,7.77
2018-12-09T14:35:34.666Z,5.37
2018-12-09T14:38:03.179Z,6.20
2018-12-09T14:40:34.881Z,5.30
2018-12-09T14:43:03.392Z,10.77
2018-12-09T14:45:31.714Z,9.30
2018-12-09T14:48:00.092Z,6.27
2018-12-09T14:50:28.452Z,9.97
2018-12-09T14:52:57.491Z,9.83
2018-12-09T14:55:33.060Z,4.90
2018-12-09T14:58:00.268Z,8.27
2018-12-09T15:00:27.497Z,6.37
2018-12-09T15:02:54.819Z,8.20
2018-12-09T15:05:22.032Z,7.33
2018-12-09T15:07:49.248Z,8.90
2018-12-09T15:10:16.800Z,5.90
2018-12-09T15:12:45.528Z,5.90
2018-12-09T15:15:13.889Z,5.57
2018-12-09T15:17:42.208Z,6.23
2018-12-09T15:20:10.634Z,4.33
2018-12-09T15:22:39.075Z,4.30
2018-12-09T15:25:08.785Z,4.10
2018-12-09T15:27:37.330Z,4.77
2018-12-09T15:30:07.079Z,9.60
2018-12-09T15:32:37.664Z,3.30
2018-12-09T15:35:07.288Z,6.03
2018-12-09T15:37:35.741Z,2.13
2018-12-09T15:40:04.261Z,3.80
2018-12-09T15:42:32.520Z,4.13
2018-12-09T15:45:00.823Z,7.67
2018-12-09T15:47:29.431Z,5.57
2018-12-09T15:49:57.888Z,5.50
2018-12-09T15:52:26.277Z,8.67
2018-12-09T15:54:54.641Z,5.97
2018-12-09T15:57:23.128Z,6.20
2018-12-09T15:59:53.487Z,3.80
2018-12-09T16:02:21.911Z,10.93
2018-12-09T16:04:50.270Z,6.43
2018-12-09T16:07:18.773Z,7.30
2018-12-09T16:09:47.311Z,6.77
2018-12-09T16:12:17.402Z,5.63
2018-12-09T16:14:45.837Z,6.80
2018-12-09T16:17:14.475Z,11.07
2018-12-09T16:19:42.797Z,6.73
2018-12-09T16:22:11.011Z,5.93
2018-12-09T16:24:39.653Z,8.17
2018-12-09T16:27:07.965Z,6.40
2018-12-09T16:29:39.557Z,9.47
2018-12-09T16:32:07.872Z,8.60
2018-12-09T16:34:37.367Z,6.00
2018-12-09T16:37:06.014Z,10.47
2018-12-09T16:39:34.449Z,5.43
2018-12-09T16:42:03.107Z,4.07
2018-12-09T16:47:32.481Z,6.13
2018-12-09T16:51:03.000Z,4.20
2018-12-09T16:53:31.319Z,9.23
2018-12-09T16:55:59.921Z,5.93
2018-12-09T16:58:32.356Z,5.47
2018-12-09T17:01:00.758Z,6.30
2018-12-09T17:03:29.058Z,6.70
2018-12-09T17:05:57.960Z,3.80
2018-12-09T17:08:26.430Z,5.10
2018-12-09T17:10:54.797Z,6.50
2018-12-09T17:13:23.173Z,7.17
2018-12-09T17:15:51.984Z,8.10
2018-12-09T17:18:20.244Z,5.17
2018-12-09T17:20:48.572Z,3.70
2018-12-09T17:23:20.799Z,8.77
2018-12-09T17:25:49.156Z,8.17
2018-12-09T17:28:17.432Z,7.40
2018-12-09T17:30:45.872Z,5.60
2018-12-09T17:33:14.187Z,8.87
2018-12-09T17:35:43.629Z,7.43
2018-12-09T17:38:13.750Z,12.63
2018-12-09T17:40:41.996Z,11.20
2018-12-09T17:43:10.326Z,14.73
2018-12-09T17:45:38.583Z,6.87
2018-12-09T17:48:11.396Z,11.00
2018-12-09T17:50:44.120Z,10.07
2018-12-09T17:53:13.136Z,10.47
2018-12-09T17:55:41.492Z,10.20
2018-12-09T17:58:09.815Z,10.30
2018-12-09T18:00:38.501Z,11.27
2018-12-09T18:03:07.049Z,10.50
2018-12-09T18:05:42.295Z,9.53
2018-12-09T18:08:10.623Z,8.20
2018-12-09T18:10:39.265Z,14.60
2018-12-09T18:13:07.632Z,8.37
2018-12-09T18:15:36.061Z,14.13
2018-12-09T18:18:04.469Z,11.77
2018-12-09T18:20:33.512Z,9.73
2018-12-09T18:23:01.952Z,8.50
2018-12-09T18:25:30.319Z,10.40
2018-12-09T18:28:00.753Z,12.30
2018-12-09T18:30:29.905Z,13.57
2018-12-09T18:32:58.684Z,12.63
2018-12-09T18:35:27.868Z,10.03
2018-12-09T18:37:56.862Z,16.90
2018-12-09T18:40:25.296Z,8.87
2018-12-09T18:42:53.734Z,7.40
2018-12-09T18:45:23.728Z,15.53
2018-12-09T18:47:52.209Z,11.57
2018-12-09T18:50:20.665Z,13.25
2018-12-09T18:52:49.102Z,12.67
2018-12-09T18:55:18.755Z,14.00
2018-12-09T18:57:47.380Z,8.80
2018-12-09T19:00:15.849Z,10.80
2018-12-09T19:02:44.359Z,8.07
2018-12-09T19:05:12.880Z,10.90
2018-12-09T19:07:41.814Z,14.93
2018-12-09T19:10:10.157Z,14.13
2018-12-09T19:12:38.796Z,6.97
2018-12-09T19:15:07.514Z,15.23
2018-12-09T19:17:35.971Z,11.00
2018-12-09T19:20:04.394Z,9.97
2018-12-09T19:22:32.712Z,7.87
2018-12-09T19:25:00.976Z,16.07
2018-12-09T19:27:29.164Z,13.87
2018-12-09T19:29:58.014Z,17.60
2018-12-09T19:32:26.355Z,13.37
2018-12-09T19:34:54.741Z,11.57
2018-12-09T19:37:22.971Z,10.07
2018-12-09T19:39:51.263Z,12.50
2018-12-09T19:42:19.583Z,12.17
2018-12-09T19:44:49.782Z,14.90
2018-12-09T19:47:18.076Z,14.80
2018-12-09T19:49:46.379Z,6.03
2018-12-09T19:52:14.654Z,10.93
2018-12-09T19:54:42.970Z,12.00
2018-12-09T19:57:11.428Z,16.33
2018-12-09T19:59:45.691Z,15.33
2018-12-09T20:02:13.111Z,7.60
2018-12-09T20:04:40.283Z,7.40
2018-12-09T20:07:07.453Z,13.60
2018-12-09T20:09:34.639Z,12.40
2018-12-09T20:12:03.066Z,12.40
2018-12-09T20:14:31.359Z,8.48
2018-12-09T20:16:59.900Z,7.20
2018-12-09T20:19:28.243Z,12.18
2018-12-09T20:21:56.655Z,10.77
2018-12-09T20:24:24.844Z,12.87
2018-12-09T20:26:53.192Z,11.10
2018-12-09T20:29:21.463Z,12.93
2018-12-09T20:31:49.764Z,10.58
2018-12-09T20:34:18.656Z,11.25
2018-12-09T20:36:46.832Z,9.47
2018-12-09T20:39:15.146Z,16.67
2018-12-09T20:41:43.479Z,29.23
2018-12-09T20:44:11.800Z,12.78
2018-12-09T20:46:40.466Z,13.80
2018-12-09T20:49:08.825Z,11.10
2018-12-09T20:51:37.139Z,10.23
2018-12-09T20:54:05.358Z,17.40
2018-12-09T20:56:35.263Z,12.53
2018-12-09T20:59:03.623Z,15.50
2018-12-09T21:01:31.964Z,6.95
2018-12-09T21:04:00.271Z,16.35
2018-12-09T21:06:28.664Z,11.43
2018-12-09T21:08:57.395Z,10.00
2018-12-09T21:11:25.627Z,15.88
2018-12-09T21:13:54.073Z,13.25
2018-12-09T21:16:22.677Z,12.53
2018-12-09T21:18:50.949Z,10.32
2018-12-09T21:21:19.392Z,12.90
2018-12-09T21:23:48.062Z,19.40
2018-12-09T21:26:17.392Z,16.55
2018-12-09T21:28:45.861Z,21.42
2018-12-09T21:31:14.179Z,16.55
2018-12-09T21:33:42.917Z,20.27
2018-12-09T21:36:11.269Z,12.63
2018-12-09T21:38:39.692Z,11.85
2018-12-09T21:41:08.027Z,14.95
2018-12-09T21:46:08.593Z,17.37
2018-12-09T21:48:35.824Z,29.92
2018-12-09T21:51:03.201Z,12.75
2018-12-09T21:53:32.252Z,11.65
2018-12-09T21:56:00.614Z,9.45
2018-12-09T21:58:28.969Z,14.05
2018-12-09T22:00:57.452Z,10.13
2018-12-09T22:03:25.798Z,11.10
2018-12-09T22:05:54.246Z,14.10
2018-12-09T22:08:21.463Z,7.70
2018-12-09T22:10:49.793Z,11.93
2018-12-09T22:13:18.357Z,10.88
2018-12-09T22:15:47.637Z,12.75
2018-12-09T22:18:16.089Z,10.53
2018-12-09T22:20:44.436Z,11.93
2018-12-09T22:23:13.370Z,10.80
2018-12-09T22:25:41.920Z,12.68
2018-12-09T22:28:10.251Z,8.65
2018-12-09T22:30:38.612Z,16.95
2018-12-09T22:33:06.925Z,7.03
2018-12-09T22:35:35.377Z,17.62
2018-12-09T22:38:03.766Z,10.05
2018-12-09T22:40:32.038Z,13.60
2018-12-09T22:43:00.413Z,8.00
2018-12-09T22:45:28.844Z,9.48
2018-12-09T22:47:57.392Z,6.67
2018-12-09T22:50:25.744Z,19.35
2018-12-09T22:52:54.179Z,5.97
2018-12-09T22:55:22.509Z,16.70
2018-12-09T22:57:51.060Z,8.83
2018-12-09T23:00:27.398Z,7.55
2018-12-09T23:03:00.525Z,11.88
2018-12-09T23:05:29.017Z,13.98
2018-12-09T23:07:57.465Z,9.35
2018-12-09T23:10:25.867Z,8.65
2018-12-09T23:12:54.336Z,6.58
2018-12-09T23:15:22.804Z,14.03
2018-12-09T23:17:51.188Z,4.87
2018-12-09T23:20:20.150Z,7.25
2018-12-09T23:22:48.492Z,7.85
2018-12-09T23:25:17.508Z,8.70
2018-12-09T23:27:45.850Z,8.28
2018-12-09T23:30:14.198Z,3.95
2018-12-09T23:32:42.569Z,12.13
2018-12-09T23:35:11.176Z,6.60
2018-12-09T23:37:39.687Z,13.48
2018-12-09T23:40:08.372Z,10.20
2018-12-09T23:42:36.925Z,11.28
2018-12-09T23:45:05.460Z,13.00
2018-12-09T23:47:34.076Z,8.15
2018-12-09T23:50:02.648Z,13.55
2018-12-09T23:52:30.936Z,8.13
2018-12-09T23:54:59.286Z,6.75
2018-12-09T23:57:27.919Z,9.70
2018-12-09T23:59:59.024Z,14.87
